GW0446 Weather Reports


Display with metric or nautical units.
time (UTC)temp
F
wind
direction
speed
MPH
gust
MPH
rain 1hr
in
rain 24hr
in
rain mn
in
humidity
%
barometer
mb
20260507094938 58 240 3.0 8.0 0.00 0.00 0.00 67 1014.9
20260507094441 60 331 3.0 9.0 0.00 0.00 0.00 64 1014.9
20260507093939 62 87 5.0 8.0 0.00 0.00 0.00 65 1014.8
20260507093440 61 104 3.0 5.0 0.00 0.00 0.00 69 1014.8
20260507091939 59 93 4.0 8.0 0.00 0.00 0.00 70 1014.9
20260507091441 59 343 2.0 8.0 0.00 0.00 0.00 70 1014.9
20260507090952 58 80 0.0 8.0 0.00 0.00 0.00 71 1015.0
20260507090441 57 52 3.0 9.0 0.00 0.00 0.00 71 1014.9
20260507085938 57 2 1.0 9.0 0.00 0.00 0.00 70 1014.5
20260507084939 58 337 2.0 5.0 0.00 0.00 0.00 69 1014.7
20260507083938 58 25 2.0 3.0 0.00 0.00 0.00 70 1015.1
20260507083442 58 88 2.0 5.0 0.00 0.00 0.00 71 1014.7
20260507082939 59 289 2.0 5.0 0.00 0.00 0.00 72 1014.9
20260507082440 58 114 2.0 5.0 0.00 0.00 0.00 73 1014.7
20260507081939 58 64 2.0 5.0 0.00 0.00 0.00 73 1015.0
20260507081439 58 342 0.0 5.0 0.00 0.00 0.00 72 1015.2
20260507080440 57 106 3.0 6.0 0.00 0.00 0.00 75 1015.0
20260507075939 57 81 4.0 5.0 0.00 0.00 0.00 73 1015.1
20260507075440 57 97 3.0 6.0 0.00 0.00 0.00 74 1015.1
20260507074939 57 105 5.0 6.0 0.00 0.00 0.00 74 1015.1
20260507074440 58 75 2.0 6.0 0.00 0.00 0.00 72 1015.4
20260507073941 58 92 2.0 5.0 0.00 0.00 0.00 72 1015.1
20260507073440 58 103 2.0 5.0 0.00 0.00 0.00 71 1015.4
20260507072939 59 97 3.0 5.0 0.00 0.00 0.00 69 1014.9
20260507072440 58 91 3.0 5.0 0.00 0.00 0.00 72 1014.8
20260507071939 57 50 1.0 5.0 0.00 0.00 0.00 72 1015.0
20260507071441 58 79 3.0 5.0 0.00 0.00 0.00 70 1015.0
20260507070440 57 73 1.0 3.0 0.00 0.00 0.00 72 1015.0
20260507065942 57 342 1.0 3.0 0.00 0.00 0.00 71 1014.8
20260507065440 56 69 1.0 4.0 0.00 0.00 0.00 71 1014.9
20260507064940 56 75 2.0 4.0 0.00 0.00 0.00 73 1014.9
20260507064441 55 309 1.0 2.0 0.00 0.00 0.00 73 1015.1
20260507063938 56 295 0.0 2.0 0.00 0.00 0.00 73 1015.0
20260507063443 55 110 1.0 2.0 0.00 0.00 0.00 75 1014.9
20260507062944 53 51 0.0 2.0 0.00 0.01 0.00 77 1014.8
20260507061939 53 250 1.0 2.0 0.00 0.01 0.00 77 1014.4
20260507061440 53 271 0.0 2.0 0.00 0.01 0.00 78 1014.5
20260507060939 52 241 0.0 2.0 0.00 0.01 0.00 78 1014.1
20260507060440 52 248 0.0 1.0 0.00 0.01 0.00 80 1014.3
20260507055939 50 279 0.0 2.0 0.00 0.01 0.00 81 1014.4
20260507055440 49 245 0.0 2.0 0.00 0.01 0.00 80 1014.3
20260507054940 49 226 1.0 2.0 0.00 0.01 0.00 81 1014.2
20260507054440 49 242 0.0 2.0 0.00 0.01 0.00 82 1014.1
20260507052940 46 231 0.0 3.0 0.00 0.01 0.00 84 1014.0
20260507052441 46 251 2.0 3.0 0.00 0.01 0.00 84 1014.2
20260507051953 46 243 2.0 3.0 0.00 0.01 0.00 85 1014.3
20260507051445 46 238 1.0 2.0 0.00 0.01 0.00 87 1014.0
20260507050940 45 275 0.0 2.0 0.00 0.01 0.00 88 1013.9
20260507050442 45 246 0.0 2.0 0.00 0.01 0.00 89 1013.8
20260507045940 44 100 1.0 2.0 0.00 0.01 0.00 90 1013.8
20260507045443 43 172 0.0 1.0 0.00 0.01 0.00 90 1013.9
20260507044930 42 50 0.0 1.0 0.00 0.01 0.00 90 1013.8
20260507044426 42 269 0.0 2.0 0.00 0.01 0.00 90 1013.7
20260507043927 42 95 0.0 2.0 0.00 0.01 0.00 90 1013.8
20260507043427 42 80 0.0 2.0 0.00 0.01 0.00 90 1013.6
20260507042926 42 254 0.0 2.0 0.00 0.01 0.00 90 1013.6
20260507042428 42 109 0.0 2.0 0.00 0.01 0.00 90 1013.6
20260507041915 42 99 0.0 2.0 0.00 0.01 0.00 90 1013.7
20260507041415 42 77 1.0 2.0 0.00 0.01 0.00 90 1013.6
20260507040915 42 92 0.0 2.0 0.00 0.01 0.00 90 1013.8
20260507040415 42 95 0.0 2.0 0.00 0.01 0.00 90 1013.7
20260507035915 42 79 1.0 2.0 0.00 0.02 0.00 90 1013.6
20260507035415 43 107 1.0 2.0 0.00 0.02 0.00 90 1013.5
20260507033415 43 126 0.0 3.0 0.00 0.02 0.00 90 1013.3
20260507032914 43 76 0.0 3.0 0.00 0.02 0.00 90 1013.5
20260507031915 43 99 0.0 1.0 0.00 0.03 0.00 90 1013.5
20260507031415 43 74 0.0 1.0 0.00 0.03 0.00 90 1013.3
20260507030402 43 91 0.0 0.0 0.00 0.03 0.00 90 1013.4
20260507025904 43 219 0.0 0.0 0.00 0.03 0.00 90 1013.4
20260507024338 43 186 0.0 1.0 0.00 0.03 0.00 90 1013.6
20260507023852 43 94 0.0 2.0 0.00 0.03 0.00 90 1013.7
20260507022852 44 190 0.0 2.0 0.00 0.03 0.00 89 1013.6
20260507022339 44 213 0.0 2.0 0.00 0.03 0.00 89 1013.5
20260507021838 44 234 0.0 1.0 0.00 0.03 0.00 89 1013.5
20260507021352 44 199 0.0 1.0 0.00 0.03 0.00 89 1013.4
20260507020840 44 126 0.0 1.0 0.00 0.03 0.00 89 1013.3
20260507020340 45 180 0.0 1.0 0.00 0.04 0.00 89 1013.3
20260507015855 45 227 0.0 1.0 0.00 0.04 0.00 89 1013.4
20260507015331 45 207 0.0 1.0 0.00 0.04 0.00 89 1013.4
20260507014830 45 89 0.0 0.0 0.00 0.04 0.00 89 1013.6
20260507014330 45 89 0.0 0.0 0.00 0.04 0.00 89 1013.2
20260507013831 45 89 0.0 0.0 0.00 0.04 0.00 89 1013.2
20260507013330 45 89 0.0 2.0 0.00 0.04 0.00 88 1013.3
20260507012829 45 89 0.0 2.0 0.00 0.04 0.00 88 1013.4
20260507012330 45 53 0.0 2.0 0.00 0.04 0.00 88 1013.5
20260507011831 45 87 0.0 2.0 0.00 0.04 0.00 88 1013.2
20260507011330 45 71 0.0 2.0 0.00 0.04 0.00 88 1013.3
20260507010830 45 79 0.0 1.0 0.00 0.04 0.00 88 1013.3
20260507010331 46 90 0.0 1.0 0.00 0.05 0.00 88 1013.1
20260507005330 46 209 0.0 1.0 0.00 0.05 0.00 88 1013.2
20260507004832 46 133 0.0 0.0 0.00 0.05 0.00 88 1013.1
20260507004331 46 245 0.0 1.0 0.00 0.05 0.00 88 1013.3
20260507003835 46 245 0.0 2.0 0.00 0.05 0.00 88 1013.1
20260507003332 46 37 0.0 2.0 0.00 0.05 0.00 88 1013.1
20260507002831 46 66 0.0 0.0 0.00 0.05 0.00 88 1013.1
20260507002333 47 269 0.0 1.0 0.00 0.05 0.00 87 1013.0
20260507001831 47 65 0.0 3.0 0.00 0.05 0.00 87 1013.2
20260507001330 47 57 0.0 3.0 0.00 0.05 0.00 87 1013.1
20260507000830 47 61 0.0 2.0 0.00 0.05 0.00 87 1013.0
20260506235331 47 66 0.0 1.0 0.00 0.05 0.00 86 1013.0
20260506234831 48 70 0.0 2.0 0.00 0.05 0.00 86 1013.1
20260506234333 48 68 0.0 2.0 0.00 0.05 0.00 86 1013.0
20260506233830 48 68 0.0 2.0 0.00 0.05 0.00 86 1013.0
20260506232330 49 61 0.0 2.0 0.00 0.05 0.00 86 1013.2
20260506231830 49 22 2.0 2.0 0.00 0.05 0.00 86 1013.0
20260506231330 49 9 0.0 2.0 0.00 0.05 0.00 86 1013.0
20260506230830 49 36 0.0 2.0 0.00 0.05 0.00 86 1013.0
20260506225831 49 77 1.0 2.0 0.00 0.05 0.00 86 1013.0
20260506225334 49 37 0.0 2.0 0.00 0.05 0.00 86 1013.0
20260506224832 49 33 0.0 2.0 0.00 0.05 0.00 85 1012.9
20260506224332 49 94 0.0 2.0 0.00 0.05 0.00 85 1013.0
20260506223831 49 95 0.0 1.0 0.00 0.05 0.00 85 1012.9
20260506223334 49 283 0.0 1.0 0.00 0.05 0.00 84 1012.9
20260506222831 49 232 0.0 1.0 0.00 0.05 0.00 84 1012.8
20260506222323 49 73 0.0 1.0 0.00 0.05 0.00 83 1012.7
20260506221818 50 111 0.0 1.0 0.00 0.05 0.00 83 1012.8
20260506220755 50 259 0.0 2.0 0.00 0.05 0.00 82 1012.8
20260506220245 51 249 0.0 2.0 0.00 0.05 0.00 82 1012.9
20260506215744 51 264 1.0 2.0 0.00 0.05 0.05 82 1012.8
20260506215243 51 245 0.0 2.0 0.00 0.05 0.05 81 1012.9
20260506214731 51 284 0.0 2.0 0.00 0.05 0.05 81 1012.8
20260506214231 51 256 0.0 2.0 0.00 0.05 0.05 81 1012.9
20260506213731 51 281 2.0 2.0 0.00 0.05 0.05 81 1012.5
20260506213231 51 263 1.0 2.0 0.00 0.05 0.05 81 1012.9
20260506212733 51 283 1.0 3.0 0.00 0.05 0.05 81 1012.6
20260506212231 51 310 1.0 3.0 0.00 0.05 0.05 80 1012.6
20260506211731 52 312 1.0 3.0 0.00 0.05 0.05 80 1012.7
20260506211232 52 314 1.0 4.0 0.00 0.05 0.05 79 1012.5
20260506210732 52 325 2.0 4.0 0.00 0.05 0.05 79 1012.5
20260506210232 52 307 3.0 4.0 0.00 0.05 0.05 79 1012.4
20260506205231 53 312 1.0 6.0 0.00 0.05 0.05 78 1012.4
20260506204734 53 270 5.0 8.0 0.00 0.05 0.05 78 1012.6
20260506204231 53 298 3.0 8.0 0.00 0.05 0.05 77 1012.4
20260506203732 53 277 3.0 5.0 0.00 0.05 0.05 78 1012.5
20260506203233 53 330 2.0 5.0 0.00 0.05 0.05 77 1012.3
20260506202231 53 286 2.0 5.0 0.00 0.05 0.05 77 1012.2
20260506201731 54 32 1.0 5.0 0.00 0.05 0.05 76 1012.1
20260506201223 54 249 2.0 6.0 0.00 0.05 0.05 76 1012.2
20260506200717 54 9 2.0 6.0 0.00 0.05 0.05 75 1012.0
20260506200217 54 355 1.0 4.0 0.00 0.05 0.05 75 1011.8
20260506195720 54 332 2.0 5.0 0.00 0.05 0.05 75 1011.8
20260506194718 54 54 0.0 5.0 0.00 0.05 0.05 75 1011.7
20260506193718 55 314 0.0 5.0 0.00 0.05 0.05 76 1011.4
20260506193217 55 322 0.0 2.0 0.00 0.05 0.05 76 1011.4
20260506192706 55 331 0.0 2.0 0.00 0.05 0.05 76 1011.2
20260506192208 55 34 0.0 3.0 0.00 0.05 0.05 75 1011.3
20260506191706 55 89 0.0 3.0 0.00 0.05 0.05 75 1011.2
20260506191206 55 34 2.0 3.0 0.00 0.05 0.05 74 1011.3
20260506190710 56 8 2.0 3.0 0.00 0.05 0.05 74 1011.2
20260506190206 56 85 0.0 4.0 0.00 0.05 0.05 73 1011.0
20260506185706 56 59 2.0 5.0 0.00 0.05 0.05 72 1011.0
20260506185206 56 25 4.0 6.0 0.00 0.05 0.05 72 1011.0
20260506184706 56 282 4.0 6.0 0.00 0.05 0.05 71 1011.2
20260506184205 56 43 3.0 6.0 0.00 0.05 0.05 70 1011.1
20260506183708 56 28 3.0 7.0 0.00 0.05 0.05 70 1011.0
20260506183208 56 316 1.0 7.0 0.00 0.05 0.05 69 1010.8
20260506182708 57 70 6.0 6.0 0.00 0.05 0.05 68 1010.8
20260506182206 57 10 3.0 8.0 0.00 0.05 0.05 68 1010.8
20260506181209 57 305 3.0 6.0 0.00 0.05 0.05 67 1010.5
20260506180707 58 309 2.0 9.0 0.00 0.05 0.05 67 1010.5
20260506180218 58 5 2.0 9.0 0.00 0.05 0.05 67 1010.5
20260506175706 58 277 6.0 9.0 0.00 0.05 0.05 67 1010.3
20260506175206 58 4 2.0 9.0 0.00 0.05 0.05 67 1010.4
20260506174711 58 260 4.0 9.0 0.00 0.05 0.05 67 1010.3
20260506174209 58 291 3.0 6.0 0.00 0.05 0.05 69 1010.0
20260506173707 58 266 3.0 6.0 0.00 0.05 0.05 69 1010.1
20260506173207 58 303 2.0 6.0 0.00 0.05 0.05 69 1009.9
20260506172706 58 296 2.0 6.0 0.00 0.05 0.05 69 1009.9
20260506172206 58 274 2.0 5.0 0.00 0.05 0.05 69 1009.9
20260506171705 58 287 4.0 6.0 0.00 0.05 0.05 68 1009.9
20260506171206 58 323 2.0 6.0 0.00 0.05 0.05 68 1010.2
20260506170706 58 268 3.0 6.0 0.00 0.05 0.05 68 1010.0
20260506170208 58 265 3.0 6.0 0.00 0.05 0.05 67 1010.0
20260506165706 58 281 5.0 7.0 0.00 0.05 0.05 67 1010.0
20260506164206 59 261 6.0 9.0 0.00 0.06 0.05 65 1010.0
20260506163709 59 285 4.0 5.0 0.00 0.06 0.05 64 1009.9
20260506163205 59 274 3.0 5.0 0.00 0.06 0.05 63 1009.8
20260506162710 59 314 2.0 8.0 0.00 0.06 0.05 62 1009.9
20260506162211 60 284 3.0 13.0 0.00 0.06 0.05 61 1009.9
20260506161718 60 294 3.0 13.0 0.00 0.06 0.05 59 1010.4
20260506161212 60 266 7.0 11.0 0.00 0.06 0.05 61 1010.4
20260506160705 60 266 4.0 9.0 0.00 0.06 0.05 61 1010.2
20260506160218 60 347 2.0 12.0 0.00 0.06 0.05 59 1010.3
20260506155706 60 304 2.0 12.0 0.00 0.06 0.05 62 1010.2
20260506155205 60 6 4.0 8.0 0.00 0.06 0.05 61 1010.7
20260506154706 60 258 1.0 8.0 0.00 0.06 0.05 65 1010.3
20260506153706 59 2 2.0 6.0 0.00 0.06 0.05 64 1010.1
20260506153206 59 346 2.0 8.0 0.00 0.06 0.05 64 1010.0
20260506152706 59 267 4.0 8.0 0.00 0.06 0.05 64 1009.9
20260506152206 59 318 2.0 7.0 0.00 0.06 0.05 66 1010.1
20260506151706 59 20 4.0 6.0 0.00 0.06 0.05 65 1010.1
20260506151206 59 306 3.0 6.0 0.00 0.06 0.05 66 1010.0
20260506150706 59 3 2.0 6.0 0.00 0.06 0.05 65 1009.8
20260506150206 59 272 2.0 6.0 0.00 0.06 0.05 65 1009.9
20260506145706 59 321 4.0 6.0 0.00 0.06 0.05 64 1010.0
20260506145206 59 28 3.0 9.0 0.00 0.06 0.05 63 1010.1
20260506144720 59 104 3.0 12.0 0.00 0.06 0.05 65 1010.1
20260506144209 58 297 5.0 12.0 0.00 0.06 0.05 65 1010.1
20260506143706 58 257 3.0 8.0 0.00 0.06 0.05 66 1010.2
20260506143205 59 325 3.0 7.0 0.00 0.06 0.05 66 1010.1
20260506142706 58 63 6.0 6.0 0.00 0.06 0.05 64 1010.4
20260506142205 58 328 3.0 6.0 0.00 0.06 0.05 64 1010.3
20260506141206 58 265 4.0 8.0 0.00 0.07 0.05 69 1010.2
20260506140705 58 303 3.0 10.0 0.00 0.07 0.05 67 1010.3
20260506140206 58 280 4.0 10.0 0.00 0.07 0.05 67 1010.3
20260506135705 58 282 3.0 13.0 0.00 0.07 0.05 69 1010.1
20260506135208 57 331 3.0 13.0 0.00 0.07 0.05 72 1010.4
20260506134706 57 284 4.0 10.0 0.00 0.07 0.05 71 1010.3
20260506134206 57 303 4.0 10.0 0.00 0.07 0.05 71 1010.3
20260506133705 57 285 3.0 9.0 0.00 0.07 0.05 71 1010.2
20260506133206 57 257 6.0 7.0 0.00 0.08 0.05 73 1010.8
20260506132706 57 246 2.0 7.0 0.00 0.08 0.05 71 1010.4
20260506132206 58 282 4.0 6.0 0.00 0.08 0.05 73 1010.4
20260506131206 57 288 4.0 7.0 0.00 0.08 0.05 73 1010.2
20260506130706 57 29 2.0 6.0 0.00 0.09 0.05 72 1010.2
20260506130206 57 359 2.0 10.0 0.00 0.09 0.05 73 1010.3
20260506125711 56 344 2.0 10.0 0.00 0.09 0.05 75 1010.1
20260506125206 56 266 4.0 5.0 0.00 0.10 0.05 75 1010.2
20260506124706 56 101 2.0 5.0 0.00 0.10 0.05 75 1010.1
20260506124206 56 292 2.0 5.0 0.00 0.10 0.05 77 1010.4
20260506123706 55 81 3.0 6.0 0.00 0.11 0.05 77 1010.1
20260506123205 55 2 4.0 6.0 0.00 0.11 0.05 76 1010.1
20260506122706 55 325 3.0 7.0 0.00 0.11 0.05 79 1010.5
20260506122206 55 7 2.0 7.0 0.00 0.12 0.05 78 1010.3
20260506121718 55 304 2.0 5.0 0.00 0.12 0.05 79 1010.3
20260506121206 55 78 3.0 8.0 0.00 0.13 0.05 79 1010.2
20260506120706 54 264 3.0 8.0 0.00 0.13 0.05 79 1010.2
20260506120209 54 359 1.0 8.0 0.00 0.13 0.05 81 1010.1
20260506115706 54 320 2.0 8.0 0.00 0.14 0.05 81 1010.2
20260506115206 54 268 6.0 8.0 0.00 0.14 0.05 81 1010.2
20260506114707 54 91 3.0 5.0 0.00 0.15 0.05 79 1010.1
20260506114206 55 282 2.0 5.0 0.00 0.15 0.05 79 1010.2
20260506113706 55 290 2.0 8.0 0.00 0.15 0.05 79 1010.0
20260506113207 54 15 0.0 8.0 0.00 0.15 0.05 78 1010.2
20260506112706 54 36 2.0 6.0 0.00 0.16 0.05 80 1010.3
20260506112207 54 64 3.0 5.0 0.00 0.16 0.05 82 1010.0
20260506111706 54 346 3.0 6.0 0.00 0.16 0.05 82 1010.2
20260506111209 54 269 4.0 6.0 0.00 0.17 0.05 82 1010.1
20260506110205 53 346 3.0 6.0 0.00 0.18 0.05 83 1010.1
20260506105706 53 323 2.0 6.0 0.00 0.18 0.05 84 1010.1
20260506105206 53 285 4.0 6.0 0.00 0.19 0.05 84 1010.0
20260506104706 53 334 2.0 9.0 0.00 0.20 0.05 85 1010.1
20260506104206 53 66 4.0 9.0 0.00 0.20 0.05 84 1010.0
20260506103706 53 275 3.0 7.0 0.00 0.21 0.05 85 1009.9
20260506103206 53 346 2.0 8.0 0.00 0.22 0.05 85 1010.0
20260506102706 53 1 2.0 8.0 0.00 0.23 0.05 86 1010.0
20260506102208 53 45 2.0 6.0 0.00 0.24 0.05 86 1009.5
20260506101705 53 81 4.0 8.0 0.00 0.26 0.05 85 1009.7
20260506100706 52 295 3.0 8.0 0.00 0.28 0.05 86 1009.5
20260506100219 52 81 6.0 8.0 0.00 0.29 0.05 87 1009.6
20260506095709 52 327 3.0 6.0 0.00 0.30 0.05 88 1009.9